Time;durP1;ratioP1;P1;durP2;ratioP2;P2;SDS_P1;SDS_P2;PMS_P1;PMS_P2;Temp;Humidity;BMP_temperature;BMP_pressure;BME280_temperature;BME280_humidity;BME280_pressure;Samples;Min_cycle;Max_cycle;Signal;HPM_P1;HPM_P2
2022/05/19 00:01:01;;;;;;;9.15;4.97;;;;;;;20.79;59.84;101066.13;2108369;28;20440;-72
2022/05/19 00:02:25;;;;;;;10.60;4.18;;;;;;;20.72;59.92;101066.28;2104599;28;20114;-72
2022/05/19 00:03:48;;;;;;;7.75;4.00;;;;;;;20.57;60.20;101062.13;2110668;28;20050;-72
2022/05/19 00:05:10;;;;;;;8.15;4.07;;;;;;;20.49;60.54;101064.97;2101111;28;20052;-72
2022/05/19 00:06:33;;;;;;;7.68;4.45;;;;;;;20.45;60.55;101060.59;2107439;28;20039;-72
2022/05/19 00:07:54;;;;;;;7.05;4.10;;;;;;;20.49;60.26;101059.59;2103741;28;20093;-73
2022/05/19 00:09:17;;;;;;;9.80;4.90;;;;;;;20.56;60.08;101061.25;2095485;28;20427;-72
2022/05/19 00:10:38;;;;;;;11.57;4.93;;;;;;;20.63;59.83;101057.50;2106606;28;20138;-72
2022/05/19 00:12:05;;;;;;;10.50;4.70;;;;;;;20.64;59.90;101059.28;2111607;28;20138;-72
2022/05/19 00:13:28;;;;;;;9.40;5.25;;;;;;;20.63;59.89;101068.25;2112990;28;20052;-72
2022/05/19 00:14:52;;;;;;;8.52;4.68;;;;;;;20.63;59.72;101057.50;2097416;28;20044;-72
2022/05/19 00:16:14;;;;;;;9.63;4.88;;;;;;;20.63;59.85;101062.88;2113136;27;20039;-72
2022/05/19 00:17:37;;;;;;;9.23;4.60;;;;;;;20.63;59.71;101062.88;2114870;28;20507;-71
2022/05/19 00:18:59;;;;;;;10.00;4.45;;;;;;;20.63;59.91;101065.56;2105428;28;20040;-72
2022/05/19 00:20:21;;;;;;;12.52;5.93;;;;;;;20.65;59.68;101062.84;2110721;28;20417;-72
2022/05/19 00:21:44;;;;;;;8.10;4.80;;;;;;;20.68;59.82;101060.97;2111994;28;20749;-72
2022/05/19 00:23:06;;;;;;;8.50;4.20;;;;;;;20.68;59.61;101060.09;2111779;28;20039;-72
2022/05/19 00:24:30;;;;;;;9.13;4.57;;;;;;;20.65;59.95;101061.06;2103660;28;20044;-72
2022/05/19 00:25:52;;;;;;;7.05;4.53;;;;;;;20.64;59.98;101056.59;2109207;28;20047;-72
2022/05/19 00:27:15;;;;;;;8.48;4.65;;;;;;;20.69;59.85;101062.75;2111880;28;20040;-72
2022/05/19 00:28:38;;;;;;;9.18;4.97;;;;;;;20.72;59.70;101060.94;2112113;28;20088;-71
2022/05/19 00:30:02;;;;;;;10.50;5.82;;;;;;;20.74;59.88;101064.47;2112017;28;20047;-72
2022/05/19 00:31:26;;;;;;;8.32;5.45;;;;;;;20.75;60.02;101059.06;2110811;28;20039;-72
2022/05/19 00:32:48;;;;;;;12.30;6.10;;;;;;;20.79;60.14;101062.56;2102494;28;20063;-72
2022/05/19 00:34:10;;;;;;;8.88;5.85;;;;;;;20.81;60.23;101060.72;2100835;28;20043;-73
2022/05/19 00:35:32;;;;;;;12.23;5.25;;;;;;;20.82;60.24;101059.81;2103452;28;20084;-72
2022/05/19 00:36:58;;;;;;;10.75;6.15;;;;;;;20.83;60.46;101066.94;2106174;28;20622;-72
2022/05/19 00:38:20;;;;;;;10.52;5.85;;;;;;;20.81;60.57;101061.59;2111079;28;20125;-71
2022/05/19 00:39:43;;;;;;;9.82;5.03;;;;;;;20.82;60.75;101063.38;2103681;28;20560;-72
2022/05/19 00:41:06;;;;;;;12.65;5.85;;;;;;;20.82;60.77;101066.06;2115096;27;20463;-72
2022/05/19 00:42:43;;;;;;;10.63;5.32;;;;;;;20.83;61.36;101065.13;2105852;28;20077;-72
2022/05/19 00:44:07;;;;;;;11.98;5.85;;;;;;;20.82;61.72;101057.13;2113166;28;20416;-72
2022/05/19 00:45:38;;;;;;;8.07;4.47;;;;;;;20.83;62.08;101059.78;2110584;28;20128;-72
2022/05/19 00:47:01;;;;;;;10.77;5.28;;;;;;;20.82;62.32;101057.13;2112834;28;20051;-72
2022/05/19 00:48:27;;;;;;;9.65;5.47;;;;;;;20.80;62.56;101061.66;2120231;27;20452;-72
2022/05/19 00:49:52;;;;;;;10.05;6.25;;;;;;;20.77;62.71;101062.59;2112422;28;20063;-71
2022/05/19 00:51:20;;;;;;;11.48;5.57;;;;;;;20.72;62.92;101059.13;2116448;27;20107;-72
2022/05/19 00:52:44;;;;;;;12.80;5.80;;;;;;;20.65;63.34;101065.53;2103473;28;20052;-72
2022/05/19 00:54:10;;;;;;;14.88;6.53;;;;;;;20.62;63.40;101065.59;2097514;28;20105;-72
2022/05/19 00:55:36;;;;;;;12.50;6.05;;;;;;;20.59;64.05;101063.88;2110069;28;20138;-72
2022/05/19 00:57:05;;;;;;;11.05;5.97;;;;;;;20.58;64.22;101063.91;2112727;28;20044;-72
2022/05/19 00:58:32;;;;;;;13.93;7.32;;;;;;;20.55;64.60;101067.50;2103961;28;20503;-72
2022/05/19 00:59:57;;;;;;;11.70;6.35;;;;;;;20.55;64.95;101067.50;2109359;28;20447;-72
2022/05/19 01:01:21;;;;;;;12.48;6.63;;;;;;;20.53;65.27;101064.00;2111850;28;20372;-71
2022/05/19 01:02:47;;;;;;;11.50;6.65;;;;;;;20.53;65.76;101066.69;2111640;28;20085;-71
2022/05/19 01:04:15;;;;;;;12.35;7.43;;;;;;;20.52;66.03;101069.38;2112268;28;20120;-72
2022/05/19 01:05:43;;;;;;;11.93;6.32;;;;;;;20.50;66.26;101064.06;2102767;28;20074;-72
2022/05/19 01:07:12;;;;;;;10.40;6.53;;;;;;;20.51;66.37;101070.31;2103247;28;20564;-72
2022/05/19 01:08:39;;;;;;;10.50;6.10;;;;;;;20.51;66.54;101071.19;2102624;28;20044;-72
2022/05/19 01:10:04;;;;;;;11.30;6.45;;;;;;;20.51;66.79;101067.63;2101037;28;20530;-72
2022/05/19 01:11:27;;;;;;;11.57;6.47;;;;;;;20.49;67.16;101081.06;2108819;28;20039;-72
2022/05/19 01:12:51;;;;;;;12.35;6.55;;;;;;;20.49;67.41;101083.72;2109761;28;20069;-72
2022/05/19 01:14:14;;;;;;;11.55;6.57;;;;;;;20.48;67.53;101081.09;2095108;28;20041;-72
2022/05/19 01:15:49;;;;;;;12.50;7.20;;;;;;;20.48;67.56;101087.31;2109045;28;20047;-72
2022/05/19 01:17:13;;;;;;;11.85;6.53;;;;;;;20.47;68.00;101088.28;2105593;28;20040;-72
2022/05/19 01:18:37;;;;;;;12.48;6.72;;;;;;;20.43;67.87;101094.59;2108796;28;20076;-73
2022/05/19 01:20:02;;;;;;;11.43;7.07;;;;;;;20.42;67.92;101102.66;2111507;28;20492;-72
2022/05/19 01:21:28;;;;;;;13.45;6.80;;;;;;;20.40;68.13;101096.47;2102192;28;20062;-73
2022/05/19 01:22:54;;;;;;;10.02;5.93;;;;;;;20.42;67.95;101103.53;2110162;28;20100;-72
2022/05/19 01:24:24;;;;;;;14.32;6.38;;;;;;;20.43;68.18;101097.28;2109432;28;20047;-72
2022/05/19 01:25:53;;;;;;;13.10;6.43;;;;;;;20.42;68.01;101105.34;2108917;28;20071;-72
2022/05/19 01:27:17;;;;;;;10.65;6.68;;;;;;;20.39;68.18;101098.25;2120960;27;20051;-72
2022/05/19 01:28:39;;;;;;;11.73;5.88;;;;;;;20.36;68.16;101090.25;2109581;28;20043;-72
2022/05/19 01:30:01;;;;;;;9.60;5.45;;;;;;;20.31;67.88;101092.13;2102841;28;20052;-72
2022/05/19 01:31:31;;;;;;;12.02;6.35;;;;;;;20.24;67.90;101095.81;2100399;28;20052;-72
2022/05/19 01:32:54;;;;;;;14.73;6.75;;;;;;;20.20;68.00;101100.38;2110820;28;20052;-72
2022/05/19 01:34:18;;;;;;;11.68;6.53;;;;;;;20.21;68.36;101103.94;2111583;28;20074;-72
2022/05/19 01:35:41;;;;;;;12.60;6.75;;;;;;;20.21;68.60;101107.50;2102234;28;20391;-73
2022/05/19 01:37:02;;;;;;;12.88;6.93;;;;;;;20.20;68.88;101103.06;2100539;28;20100;-73
2022/05/19 01:38:34;;;;;;;13.70;6.47;;;;;;;20.21;69.23;101101.25;2102475;28;20097;-72
2022/05/19 01:40:31;;;;;;;10.70;6.28;;;;;;;20.19;69.45;101108.44;2112362;28;20146;-72
2022/05/19 01:42:15;;;;;;;11.00;6.45;;;;;;;20.21;69.74;101112.00;2104996;28;20062;-72
2022/05/19 01:43:46;;;;;;;11.23;6.55;;;;;;;20.20;69.73;101119.16;2111591;28;20130;-73
2022/05/19 01:45:21;;;;;;;11.52;6.40;;;;;;;20.17;69.68;101126.34;2102662;28;20490;-72
2022/05/19 01:46:50;;;;;;;12.23;6.85;;;;;;;20.15;69.71;101117.47;2104629;28;20042;-72
2022/05/19 01:48:18;;;;;;;12.30;6.90;;;;;;;20.15;69.89;101122.81;2103892;28;20130;-72
2022/05/19 01:49:51;;;;;;;11.80;6.80;;;;;;;20.15;69.77;101122.81;2105744;28;20445;-72
2022/05/19 01:51:26;;;;;;;18.83;7.13;;;;;;;20.15;69.94;101120.16;2113593;28;20107;-72
2022/05/19 01:52:54;;;;;;;14.55;6.13;;;;;;;20.14;69.99;101121.06;2110522;28;20043;-72
2022/05/19 01:54:25;;;;;;;10.65;6.25;;;;;;;20.10;70.12;101119.31;2111246;28;20055;-71
2022/05/19 01:55:56;;;;;;;10.95;6.50;;;;;;;20.06;70.21;101117.63;2112372;28;20106;-72
2022/05/19 01:57:25;;;;;;;11.75;6.72;;;;;;;20.04;70.32;101122.09;2103318;28;20420;-73
2022/05/19 01:58:58;;;;;;;12.32;6.80;;;;;;;20.02;70.40;101126.63;2101357;28;20044;-72
2022/05/19 02:00:23;;;;;;;12.05;7.07;;;;;;;19.99;70.41;101124.00;2109056;28;20134;-72
2022/05/19 02:01:51;;;;;;;11.43;6.85;;;;;;;19.98;70.37;101125.78;2094669;28;20102;-72
2022/05/19 02:03:22;;;;;;;10.75;5.97;;;;;;;19.97;70.45;101132.03;2101603;28;20044;-72
2022/05/19 02:04:51;;;;;;;12.05;6.63;;;;;;;19.98;70.77;101132.94;2110644;28;20067;-72
2022/05/19 02:06:18;;;;;;;14.77;7.38;;;;;;;19.99;70.68;101134.72;2111809;28;20075;-72
2022/05/19 02:07:45;;;;;;;14.60;7.32;;;;;;;20.00;70.69;101133.81;2107339;28;20065;-73
2022/05/19 02:09:10;;;;;;;14.52;7.15;;;;;;;19.97;70.81;101131.16;2103274;28;20084;-72
2022/05/19 02:10:37;;;;;;;12.48;7.05;;;;;;;19.97;70.86;101136.53;2103321;28;20044;-72
2022/05/19 02:12:00;;;;;;;12.45;7.13;;;;;;;19.96;70.99;101137.44;2094781;28;20056;-72
2022/05/19 02:13:24;;;;;;;15.05;8.20;;;;;;;19.94;70.80;101134.78;2108313;28;20047;-72
2022/05/19 02:14:52;;;;;;;10.27;6.30;;;;;;;19.95;70.93;101143.72;2105505;28;20040;-72
2022/05/19 02:16:16;;;;;;;13.90;8.43;;;;;;;19.92;70.80;101143.75;2107093;28;20039;-72
2022/05/19 02:17:39;;;;;;;12.55;7.28;;;;;;;19.89;70.80;101150.94;2101613;28;20048;-72
2022/05/19 02:19:01;;;;;;;15.45;7.53;;;;;;;19.86;70.96;101144.75;2108508;28;20047;-71
2022/05/19 02:20:26;;;;;;;13.60;7.10;;;;;;;19.83;70.92;101139.44;2096649;28;20048;-72
2022/05/19 02:21:50;;;;;;;12.80;6.28;;;;;;;19.78;71.13;101144.88;2098865;28;20059;-72
2022/05/19 02:23:15;;;;;;;12.40;7.70;;;;;;;19.75;71.17;101142.25;2108671;28;20503;-72
2022/05/19 02:24:42;;;;;;;16.40;7.60;;;;;;;19.76;71.47;101146.69;2108870;28;20039;-73
2022/05/19 02:26:04;;;;;;;14.45;7.13;;;;;;;19.77;71.34;101144.88;2111103;28;20138;-72
2022/05/19 02:27:34;;;;;;;18.10;7.47;;;;;;;19.79;71.64;101151.13;2111073;28;20040;-72
2022/05/19 02:29:00;;;;;;;11.02;7.07;;;;;;;19.79;71.75;101145.75;2110960;28;20049;-72
2022/05/19 02:30:27;;;;;;;13.73;6.82;;;;;;;19.79;71.71;101143.97;2113288;28;20082;-72
2022/05/19 02:31:51;;;;;;;12.48;7.55;;;;;;;19.76;71.69;101145.78;2094479;28;20076;-71
2022/05/19 02:33:15;;;;;;;13.43;8.32;;;;;;;19.78;71.85;101149.34;2099498;28;20076;-72
2022/05/19 02:34:38;;;;;;;13.60;7.80;;;;;;;19.79;71.82;101146.66;2102754;28;20040;-72
2022/05/19 02:36:00;;;;;;;12.52;7.40;;;;;;;19.83;71.99;101155.50;2102336;28;20048;-72
2022/05/19 02:37:22;;;;;;;18.00;7.82;;;;;;;19.88;71.79;101153.66;2094045;28;20056;-71
2022/05/19 02:38:44;;;;;;;13.70;7.60;;;;;;;19.89;71.95;101150.03;2103838;28;20035;-72
2022/05/19 02:40:08;;;;;;;15.13;7.45;;;;;;;19.96;71.68;101156.19;2094229;28;20079;-72
2022/05/19 02:41:31;;;;;;;14.70;7.78;;;;;;;20.00;71.82;101160.59;2111107;28;20042;-72
2022/05/19 02:42:54;;;;;;;17.67;9.85;;;;;;;20.06;71.95;101156.03;2104654;28;20048;-73
2022/05/19 02:44:16;;;;;;;18.48;8.85;;;;;;;20.11;71.94;101154.16;2110731;28;20040;-72
2022/05/19 02:45:41;;;;;;;11.32;7.78;;;;;;;20.15;72.05;101161.22;2100034;28;20044;-72
2022/05/19 02:47:05;;;;;;;17.92;8.23;;;;;;;20.17;72.31;101163.88;2104600;28;20044;-72
2022/05/19 02:48:27;;;;;;;14.05;7.80;;;;;;;20.18;72.38;101162.97;2110975;28;20048;-72
2022/05/19 02:49:50;;;;;;;13.68;8.13;;;;;;;20.20;72.59;101164.72;2102254;28;20096;-72
2022/05/19 02:51:14;;;;;;;13.30;7.90;;;;;;;20.23;72.78;101166.44;2108390;28;20079;-72
2022/05/19 02:52:36;;;;;;;14.70;7.93;;;;;;;20.26;73.04;101169.97;2104987;28;20071;-72
2022/05/19 02:53:58;;;;;;;18.27;7.82;;;;;;;20.29;73.36;101169.91;2099091;28;20147;-73
2022/05/19 02:55:20;;;;;;;14.13;8.10;;;;;;;20.30;73.57;101171.69;2109262;28;20048;-72
2022/05/19 02:56:42;;;;;;;19.95;8.55;;;;;;;20.32;73.40;101168.97;2110747;28;20048;-72
2022/05/19 02:58:05;;;;;;;12.70;7.15;;;;;;;20.34;73.84;101174.34;2100251;28;20047;-72
2022/05/19 02:59:30;;;;;;;17.15;8.05;;;;;;;20.35;73.84;101176.13;2109758;28;20040;-72
2022/05/19 03:00:54;;;;;;;15.23;7.93;;;;;;;20.36;74.06;101170.72;2096613;28;20052;-72
2022/05/19 03:02:15;;;;;;;14.85;8.10;;;;;;;20.37;74.14;101180.53;2096431;28;20049;-72
2022/05/19 03:03:38;;;;;;;13.50;7.82;;;;;;;20.38;74.26;101176.94;2099861;28;20471;-72
2022/05/19 03:05:00;;;;;;;14.98;8.68;;;;;;;20.39;74.27;101176.03;2099299;28;20051;-73
2022/05/19 03:06:22;;;;;;;;;;;;;;;20.42;74.09;101177.75;2108343;28;20039;-72
2022/05/19 03:07:44;;;;;;;16.70;8.40;;;;;;;20.47;74.04;101181.25;2110682;28;19928;-72
2022/05/19 03:09:06;;;;;;;15.98;8.30;;;;;;;20.51;73.95;101178.50;2109121;28;20055;-72
2022/05/19 03:10:29;;;;;;;19.02;8.52;;;;;;;20.57;73.80;101178.38;2109493;28;20130;-72
2022/05/19 03:11:50;;;;;;;18.33;9.27;;;;;;;20.62;73.96;101178.28;2110585;28;20178;-73
2022/05/19 03:13:21;;;;;;;12.88;8.23;;;;;;;20.69;73.75;101175.44;2110653;28;20066;-72
2022/05/19 03:14:43;;;;;;;16.52;8.57;;;;;;;20.73;73.76;101184.34;2110757;28;20556;-72
2022/05/19 03:16:09;;;;;;;16.52;8.10;;;;;;;20.76;73.68;101180.69;2093146;28;20072;-73
2022/05/19 03:17:33;;;;;;;16.02;8.70;;;;;;;20.77;73.65;101182.47;2108057;28;20068;-72
2022/05/19 03:18:55;;;;;;;19.58;8.30;;;;;;;20.78;73.92;101178.88;2113108;28;20084;-72
2022/05/19 03:20:17;;;;;;;14.75;7.45;;;;;;;20.83;73.79;101185.03;2110582;28;20587;-73
2022/05/19 03:21:41;;;;;;;15.23;8.57;;;;;;;20.88;73.61;101185.81;2102012;28;20066;-72
2022/05/19 03:23:04;;;;;;;14.77;7.97;;;;;;;20.94;73.56;101185.69;2108249;28;20032;-72
2022/05/19 03:24:27;;;;;;;12.93;8.02;;;;;;;21.01;73.65;101182.84;2102748;28;20054;-72
2022/05/19 03:25:48;;;;;;;16.13;7.90;;;;;;;21.07;73.41;101187.22;2108103;28;20209;-72
2022/05/19 03:27:11;;;;;;;18.33;8.80;;;;;;;21.12;73.46;101189.81;2102047;28;20051;-72
2022/05/19 03:28:34;;;;;;;12.80;8.23;;;;;;;21.16;73.35;101189.75;2107829;28;20040;-72
2022/05/19 03:29:57;;;;;;;19.70;8.65;;;;;;;21.20;73.52;101193.28;2099898;28;20139;-72
2022/05/19 03:31:21;;;;;;;10.75;5.20;;;;;;;21.26;73.53;101199.41;2103857;28;20048;-72
2022/05/19 03:32:43;;;;;;;18.17;7.75;;;;;;;21.29;73.58;101191.25;2108141;28;20052;-73
2022/05/19 03:34:06;;;;;;;20.15;8.57;;;;;;;21.35;73.70;101207.25;2104513;28;20349;-72
2022/05/19 03:35:27;;;;;;;18.45;7.65;;;;;;;21.44;73.61;101209.75;2110301;28;20056;-72
2022/05/19 03:36:50;;;;;;;21.38;7.93;;;;;;;21.50;73.77;101197.06;2110550;28;20100;-72
2022/05/19 03:38:13;;;;;;;22.08;6.93;;;;;;;21.53;73.67;101215.84;2113100;28;20112;-72
2022/05/19 03:39:36;;;;;;;14.25;6.00;;;;;;;21.56;73.69;101215.75;2110642;28;20043;-72
2022/05/19 03:40:58;;;;;;;21.65;6.82;;;;;;;21.59;73.68;101218.38;2110481;28;20051;-73
2022/05/19 03:42:19;;;;;;;17.92;6.65;;;;;;;21.63;73.60;101220.06;2103954;28;20040;-73
2022/05/19 03:43:42;;;;;;;27.40;5.53;;;;;;;21.65;73.36;101232.56;2096704;28;20056;-73
2022/05/19 03:45:04;;;;;;;16.95;6.07;;;;;;;21.65;73.13;101239.75;2109248;27;20043;-73
2022/05/19 03:46:29;;;;;;;13.32;5.28;;;;;;;21.67;72.87;101243.25;2106073;28;20551;-72
2022/05/19 03:47:51;;;;;;;21.67;5.20;;;;;;;21.67;72.62;101244.13;2095597;28;20048;-73
2022/05/19 03:49:14;;;;;;;12.52;5.13;;;;;;;21.71;72.36;101245.88;2101337;28;20048;-73
2022/05/19 03:50:35;;;;;;;15.55;4.45;;;;;;;21.72;72.00;101249.44;2103689;28;20036;-72
2022/05/19 03:51:58;;;;;;;22.80;6.43;;;;;;;21.70;71.67;101244.09;2110635;28;20079;-73
2022/05/19 03:53:20;;;;;;;8.70;3.72;;;;;;;21.69;71.47;101244.13;2103943;28;20081;-73
2022/05/19 03:54:42;;;;;;;14.05;6.43;;;;;;;21.64;71.10;101249.59;2105871;28;20125;-72
2022/05/19 03:56:05;;;;;;;17.80;4.75;;;;;;;21.60;70.53;101237.13;2110453;28;20098;-73
2022/05/19 03:57:27;;;;;;;9.70;4.30;;;;;;;21.55;70.35;101249.78;2101484;28;20044;-72
2022/05/19 03:58:50;;;;;;;15.40;4.82;;;;;;;21.50;70.07;101249.00;2103386;28;20136;-72
2022/05/19 04:00:13;;;;;;;22.15;4.72;;;;;;;21.50;69.80;101253.50;2103046;28;20056;-72
2022/05/19 04:01:39;;;;;;;12.32;4.45;;;;;;;21.50;69.56;101256.19;2103867;28;20139;-73
2022/05/19 04:03:02;;;;;;;20.60;4.93;;;;;;;21.52;69.42;101260.63;2095238;28;20056;-72
2022/05/19 04:04:23;;;;;;;14.82;4.50;;;;;;;21.53;69.08;101261.50;2099708;28;20040;-72
2022/05/19 04:05:46;;;;;;;12.23;4.68;;;;;;;21.54;68.89;101260.56;2100665;28;20052;-73
2022/05/19 04:07:07;;;;;;;15.80;3.67;;;;;;;21.51;68.61;101269.59;2109492;28;20044;-73
2022/05/19 04:08:30;;;;;;;15.55;5.50;;;;;;;21.48;68.32;101269.66;2102951;28;20040;-72
2022/05/19 04:09:53;;;;;;;18.05;5.45;;;;;;;21.47;68.19;101266.06;2110965;28;20080;-72
2022/05/19 04:11:17;;;;;;;15.27;4.10;;;;;;;21.50;68.23;101280.38;2111366;28;20086;-73
2022/05/19 04:12:42;;;;;;;11.65;4.45;;;;;;;21.50;67.76;101283.94;2103678;28;20044;-72
2022/05/19 04:14:05;;;;;;;17.48;4.25;;;;;;;21.46;67.87;101283.09;2101115;28;20048;-73
2022/05/19 04:15:28;;;;;;;17.67;5.95;;;;;;;21.45;67.63;101284.06;2108284;28;20035;-73
2022/05/19 04:16:53;;;;;;;14.07;4.40;;;;;;;21.47;67.39;101290.25;2113494;28;20369;-73
2022/05/19 04:18:16;;;;;;;16.23;4.13;;;;;;;21.48;67.43;101286.66;2102395;28;20599;-72
2022/05/19 04:19:38;;;;;;;15.43;4.53;;;;;;;21.52;67.27;101292.88;2111961;28;20047;-72
2022/05/19 04:21:02;;;;;;;16.88;4.00;;;;;;;21.54;67.18;101295.50;2111305;28;20130;-72
2022/05/19 04:22:24;;;;;;;23.33;4.35;;;;;;;21.55;67.02;101287.41;2110965;28;20618;-72
2022/05/19 04:23:47;;;;;;;14.90;3.78;;;;;;;21.57;66.89;101284.69;2111704;28;20487;-72
2022/05/19 04:25:12;;;;;;;22.67;4.53;;;;;;;21.58;66.90;101297.22;2111534;28;20598;-73
2022/05/19 04:26:34;;;;;;;14.30;3.90;;;;;;;21.60;66.81;101296.25;2106273;28;20043;-73
2022/05/19 04:27:57;;;;;;;12.45;3.67;;;;;;;21.63;66.49;101301.59;2103573;28;20051;-73
2022/05/19 04:29:20;;;;;;;15.23;4.10;;;;;;;21.62;66.71;101290.84;2106213;28;20041;-73
2022/05/19 04:30:42;;;;;;;22.52;4.50;;;;;;;21.60;66.76;101300.75;2112015;28;20047;-73
2022/05/19 04:32:09;;;;;;;20.73;4.07;;;;;;;21.62;66.70;101301.59;2095509;28;20048;-73
2022/05/19 04:33:32;;;;;;;14.23;4.88;;;;;;;21.62;66.53;101306.97;2104012;28;20044;-73
2022/05/19 04:34:54;;;;;;;13.85;3.55;;;;;;;21.61;66.46;101303.41;2105941;28;20051;-72
2022/05/19 04:36:16;;;;;;;15.40;3.90;;;;;;;21.62;66.71;101306.97;2103231;28;20147;-72
2022/05/19 04:37:39;;;;;;;12.93;3.75;;;;;;;21.60;66.82;101308.81;2100232;28;20511;-72
2022/05/19 04:39:02;;;;;;;16.63;3.40;;;;;;;21.58;66.77;101308.84;2100896;28;20052;-72
2022/05/19 04:40:25;;;;;;;16.08;3.97;;;;;;;21.61;66.66;101303.41;2104601;28;20491;-73
2022/05/19 04:41:48;;;;;;;13.13;3.92;;;;;;;21.64;66.68;101305.16;2111950;28;20152;-73
2022/05/19 04:43:11;;;;;;;20.55;3.80;;;;;;;21.66;66.61;101306.88;2114491;28;20048;-72
2022/05/19 04:44:34;;;;;;;13.73;3.35;;;;;;;21.68;66.54;101309.53;2111971;28;20471;-72
2022/05/19 04:45:56;;;;;;;15.18;3.83;;;;;;;21.70;66.35;101302.34;2107498;28;20053;-72
2022/05/19 04:47:20;;;;;;;18.15;4.63;;;;;;;21.71;66.30;101306.78;2103909;28;20063;-72
2022/05/19 04:48:42;;;;;;;14.50;3.90;;;;;;;21.71;66.16;101310.38;2102131;28;20048;-73
2022/05/19 04:50:05;;;;;;;15.40;4.07;;;;;;;21.72;66.07;101314.84;2104163;28;20056;-72
2022/05/19 04:51:27;;;;;;;;;;;;;;;21.74;66.15;101312.97;2110864;28;20122;-72
2022/05/19 04:52:49;;;;;;;10.23;3.40;;;;;;;21.77;65.89;101314.72;2111036;28;19928;-72
2022/05/19 04:54:12;;;;;;;14.30;3.47;;;;;;;21.82;65.73;101323.56;2103333;28;20105;-72
2022/05/19 04:55:37;;;;;;;12.65;3.20;;;;;;;21.84;65.71;101319.06;2109193;28;20042;-72
2022/05/19 04:56:58;;;;;;;10.90;2.65;;;;;;;21.83;65.83;101315.47;2103360;28;20048;-72
2022/05/19 04:58:22;;;;;;;13.93;4.25;;;;;;;21.89;65.82;101325.19;2099525;28;20056;-73
2022/05/19 04:59:45;;;;;;;12.48;3.95;;;;;;;21.95;65.62;101325.06;2117268;27;20184;-72
2022/05/19 05:01:07;;;;;;;11.52;3.13;;;;;;;22.03;65.44;101325.81;2106423;28;20077;-73
2022/05/19 05:02:31;;;;;;;15.80;3.80;;;;;;;22.07;65.41;101323.94;2103326;28;20624;-72
2022/05/19 05:03:54;;;;;;;15.63;3.45;;;;;;;22.12;65.21;101320.22;2111841;28;20043;-72
2022/05/19 05:05:17;;;;;;;16.63;4.28;;;;;;;22.21;65.15;101325.41;2111921;28;20055;-72
2022/05/19 05:06:39;;;;;;;22.42;5.28;;;;;;;22.34;64.93;101335.88;2111952;28;20048;-72
2022/05/19 05:08:01;;;;;;;23.35;4.00;;;;;;;22.44;64.71;101337.44;2107025;28;20093;-72
2022/05/19 05:09:23;;;;;;;23.23;4.32;;;;;;;22.53;64.48;101339.88;2106984;28;20134;-72
2022/05/19 05:10:46;;;;;;;11.77;3.33;;;;;;;22.57;64.32;101336.22;2112218;27;20539;-72
2022/05/19 05:12:10;;;;;;;13.77;3.33;;;;;;;22.56;64.28;101332.63;2105440;28;20129;-73
2022/05/19 05:13:33;;;;;;;11.20;2.95;;;;;;;22.47;64.48;101334.66;2103024;28;20048;-72
2022/05/19 05:14:56;;;;;;;14.60;3.78;;;;;;;22.42;64.57;101344.66;2103327;28;20055;-72
2022/05/19 05:16:19;;;;;;;11.80;3.38;;;;;;;22.43;64.38;101346.41;2119877;27;20130;-72
2022/05/19 05:17:43;;;;;;;11.38;2.17;;;;;;;22.37;63.78;101354.63;2105749;28;20052;-73
2022/05/19 05:19:06;;;;;;;8.88;2.47;;;;;;;22.22;63.55;101359.44;2104794;28;20039;-72
2022/05/19 05:20:28;;;;;;;11.35;2.60;;;;;;;22.11;63.59;101353.44;2095187;28;20086;-73
2022/05/19 05:21:51;;;;;;;12.35;3.58;;;;;;;22.09;63.67;101360.66;2110518;27;20051;-72
2022/05/19 05:23:14;;;;;;;11.15;2.85;;;;;;;22.15;63.61;101365.00;2105917;28;20058;-71
2022/05/19 05:24:36;;;;;;;9.10;2.17;;;;;;;22.28;63.47;101369.19;2108802;28;20587;-72
2022/05/19 05:25:58;;;;;;;13.27;2.58;;;;;;;22.40;63.15;101362.63;2109123;28;20058;-72
2022/05/19 05:27:20;;;;;;;14.70;2.75;;;;;;;22.48;62.86;101364.22;2110021;28;20043;-71
2022/05/19 05:28:48;;;;;;;11.55;2.42;;;;;;;22.61;62.62;101365.69;2105678;28;20097;-72
2022/05/19 05:30:13;;;;;;;11.98;3.40;;;;;;;22.73;62.30;101375.31;2116065;27;20047;-72
2022/05/19 05:31:36;;;;;;;10.48;3.13;;;;;;;22.82;61.97;101372.41;2105669;28;20118;-71
2022/05/19 05:33:06;;;;;;;13.02;3.38;;;;;;;22.90;61.45;101382.97;2101986;28;20044;-72
2022/05/19 05:34:28;;;;;;;9.05;2.55;;;;;;;22.90;61.16;101391.94;2109392;28;20047;-72
2022/05/19 05:35:51;;;;;;;12.98;2.22;;;;;;;22.87;60.64;101378.53;2105604;28;20508;-72
2022/05/19 05:37:13;;;;;;;16.38;4.03;;;;;;;22.79;60.70;101383.22;2105567;28;20700;-72
2022/05/19 05:38:35;;;;;;;10.70;2.63;;;;;;;22.79;60.59;101385.03;2102681;28;20402;-72
2022/05/19 05:39:57;;;;;;;12.30;2.25;;;;;;;22.77;60.54;101387.78;2103166;28;20036;-72
2022/05/19 05:41:19;;;;;;;9.88;2.35;;;;;;;22.76;60.59;101385.13;2106394;28;20380;-72
2022/05/19 05:42:42;;;;;;;9.63;2.20;;;;;;;22.64;60.71;101392.53;2110133;28;20047;-72
2022/05/19 05:44:04;;;;;;;13.45;3.55;;;;;;;22.53;61.09;101391.00;2116784;27;20043;-72
2022/05/19 05:45:27;;;;;;;15.57;2.67;;;;;;;22.48;61.42;101398.31;2109656;28;20103;-72
2022/05/19 05:46:48;;;;;;;18.75;2.78;;;;;;;22.38;61.80;101394.09;2109544;28;20146;-72
2022/05/19 05:48:16;;;;;;;10.25;3.55;;;;;;;22.35;62.04;101394.13;2108350;28;20075;-71
2022/05/19 05:49:38;;;;;;;8.05;2.67;;;;;;;22.34;62.32;101406.72;2111285;28;20040;-72
2022/05/19 05:51:01;;;;;;;16.15;2.80;;;;;;;22.35;62.41;101391.44;2111163;28;20056;-72
2022/05/19 05:52:24;;;;;;;13.85;3.03;;;;;;;22.36;62.53;101404.88;2102787;28;20101;-72
2022/05/19 05:53:47;;;;;;;14.25;2.83;;;;;;;22.37;62.39;101403.06;2100172;28;20431;-72
2022/05/19 05:55:11;;;;;;;15.13;2.67;;;;;;;22.34;62.50;101404.00;2107552;28;20050;-71
2022/05/19 05:56:34;;;;;;;15.63;2.97;;;;;;;22.36;62.54;101404.00;2108528;28;20143;-72
2022/05/19 05:57:55;;;;;;;11.88;3.30;;;;;;;22.40;62.33;101400.28;2111045;28;20039;-72
2022/05/19 05:59:17;;;;;;;6.80;2.10;;;;;;;22.40;62.40;101403.00;2109901;28;20131;-71
2022/05/19 06:00:42;;;;;;;16.30;2.97;;;;;;;22.42;62.50;101406.53;2111275;28;20047;-71
2022/05/19 06:02:05;;;;;;;16.73;3.00;;;;;;;22.46;62.49;101409.13;2105201;28;20043;-72
2022/05/19 06:03:32;;;;;;;19.63;2.80;;;;;;;22.52;62.48;101414.34;2102991;28;20086;-72
2022/05/19 06:04:54;;;;;;;11.85;3.20;;;;;;;22.50;62.44;101410.84;2107014;28;20565;-72
2022/05/19 06:06:18;;;;;;;12.07;2.63;;;;;;;22.45;62.57;101412.72;2108122;28;20160;-71
2022/05/19 06:07:41;;;;;;;20.20;3.95;;;;;;;22.42;62.66;101414.59;2104238;28;20048;-71
2022/05/19 06:09:03;;;;;;;16.20;3.17;;;;;;;22.40;62.88;101420.03;2109659;28;20674;-71
2022/05/19 06:10:26;;;;;;;15.50;2.90;;;;;;;22.39;63.00;101417.34;2104448;28;20044;-71
2022/05/19 06:11:49;;;;;;;13.27;3.08;;;;;;;22.37;63.08;101424.59;2117452;27;20456;-72
2022/05/19 06:13:11;;;;;;;11.27;2.90;;;;;;;22.37;63.20;101421.91;2105771;28;20154;-72
2022/05/19 06:14:34;;;;;;;12.80;2.70;;;;;;;22.34;63.15;101424.66;2110939;28;20048;-71
2022/05/19 06:15:58;;;;;;;14.50;2.42;;;;;;;22.26;63.36;101423.00;2103551;28;20055;-71
2022/05/19 06:17:21;;;;;;;11.75;2.15;;;;;;;22.21;63.54;101434.78;2109642;28;20125;-72
2022/05/19 06:18:45;;;;;;;10.07;3.38;;;;;;;22.05;63.97;101434.25;2104503;28;20140;-72
2022/05/19 06:20:10;;;;;;;25.13;4.88;;;;;;;21.94;64.42;101436.22;2102679;28;20565;-72
2022/05/19 06:21:36;;;;;;;12.32;3.15;;;;;;;21.85;64.67;101439.13;2098797;28;20040;-71
2022/05/19 06:22:59;;;;;;;15.25;2.13;;;;;;;21.74;64.88;101435.72;2099842;28;20098;-72
2022/05/19 06:24:22;;;;;;;19.48;3.75;;;;;;;21.57;65.30;101437.88;2099014;28;20051;-71
2022/05/19 06:25:44;;;;;;;8.32;2.25;;;;;;;21.45;65.86;101428.25;2108417;28;20071;-72
2022/05/19 06:27:07;;;;;;;17.27;3.45;;;;;;;21.30;66.33;101432.09;2105088;28;20060;-71
2022/05/19 06:28:28;;;;;;;12.35;2.22;;;;;;;21.22;66.67;101433.13;2102795;28;20044;-71